sensor_id;sensor_type;location;lat;lon;timestamp;temperature;humidity
52849;DHT22;38714;53.180;5.812;2024-02-15T00:01:30;10.20;99.90
52849;DHT22;38714;53.180;5.812;2024-02-15T00:03:56;10.20;99.90
52849;DHT22;38714;53.180;5.812;2024-02-15T00:06:22;10.20;99.90
52849;DHT22;38714;53.180;5.812;2024-02-15T00:08:48;10.20;99.90
52849;DHT22;38714;53.180;5.812;2024-02-15T00:11:17;10.20;99.90
52849;DHT22;38714;53.180;5.812;2024-02-15T00:13:43;10.20;99.90
52849;DHT22;38714;53.180;5.812;2024-02-15T00:16:15;10.20;99.90
52849;DHT22;38714;53.180;5.812;2024-02-15T00:18:41;10.20;99.90
52849;DHT22;38714;53.180;5.812;2024-02-15T00:21:07;10.10;99.90
52849;DHT22;38714;53.180;5.812;2024-02-15T00:23:32;10.10;99.90
52849;DHT22;38714;53.180;5.812;2024-02-15T00:25:58;10.20;99.90
52849;DHT22;38714;53.180;5.812;2024-02-15T00:28:24;10.10;99.90
52849;DHT22;38714;53.180;5.812;2024-02-15T00:30:52;10.10;99.90
52849;DHT22;38714;53.180;5.812;2024-02-15T00:33:17;10.10;99.90
52849;DHT22;38714;53.180;5.812;2024-02-15T00:35:43;10.10;99.90
52849;DHT22;38714;53.180;5.812;2024-02-15T00:38:08;10.10;99.90
52849;DHT22;38714;53.180;5.812;2024-02-15T00:40:34;10.10;99.90
52849;DHT22;38714;53.180;5.812;2024-02-15T00:43:00;10.10;99.90
52849;DHT22;38714;53.180;5.812;2024-02-15T00:45:25;10.10;99.90
52849;DHT22;38714;53.180;5.812;2024-02-15T00:47:51;10.10;99.90
52849;DHT22;38714;53.180;5.812;2024-02-15T00:50:17;10.10;99.90
52849;DHT22;38714;53.180;5.812;2024-02-15T00:52:42;10.10;99.90
52849;DHT22;38714;53.180;5.812;2024-02-15T00:55:08;10.10;99.90
52849;DHT22;38714;53.180;5.812;2024-02-15T00:57:34;10.10;99.90
52849;DHT22;38714;53.180;5.812;2024-02-15T00:59:59;10.10;99.90
52849;DHT22;38714;53.180;5.812;2024-02-15T01:02:25;10.10;99.90
52849;DHT22;38714;53.180;5.812;2024-02-15T01:04:51;10.10;99.90
52849;DHT22;38714;53.180;5.812;2024-02-15T01:07:18;10.10;99.90
52849;DHT22;38714;53.180;5.812;2024-02-15T01:09:44;10.10;99.90
52849;DHT22;38714;53.180;5.812;2024-02-15T01:12:10;10.10;99.90
52849;DHT22;38714;53.180;5.812;2024-02-15T01:14:37;10.10;99.90
52849;DHT22;38714;53.180;5.812;2024-02-15T01:17:02;10.10;99.90
52849;DHT22;38714;53.180;5.812;2024-02-15T01:19:28;10.10;99.90
52849;DHT22;38714;53.180;5.812;2024-02-15T01:21:54;10.10;99.90
52849;DHT22;38714;53.180;5.812;2024-02-15T01:24:19;10.10;99.90
52849;DHT22;38714;53.180;5.812;2024-02-15T01:26:45;10.10;99.90
52849;DHT22;38714;53.180;5.812;2024-02-15T01:29:13;10.10;99.90
52849;DHT22;38714;53.180;5.812;2024-02-15T01:31:38;10.10;99.90
52849;DHT22;38714;53.180;5.812;2024-02-15T01:34:04;10.10;99.90
52849;DHT22;38714;53.180;5.812;2024-02-15T01:36:30;10.10;99.90
52849;DHT22;38714;53.180;5.812;2024-02-15T01:38:56;10.10;99.90
52849;DHT22;38714;53.180;5.812;2024-02-15T01:41:21;10.10;99.90
52849;DHT22;38714;53.180;5.812;2024-02-15T01:43:47;10.10;99.90
52849;DHT22;38714;53.180;5.812;2024-02-15T01:46:14;10.10;99.90
52849;DHT22;38714;53.180;5.812;2024-02-15T01:48:41;10.10;99.90
52849;DHT22;38714;53.180;5.812;2024-02-15T01:51:07;10.10;99.90
52849;DHT22;38714;53.180;5.812;2024-02-15T01:53:35;10.10;99.90
52849;DHT22;38714;53.180;5.812;2024-02-15T01:56:01;10.20;99.90
52849;DHT22;38714;53.180;5.812;2024-02-15T01:58:27;10.20;99.90
52849;DHT22;38714;53.180;5.812;2024-02-15T02:00:57;10.10;99.90
52849;DHT22;38714;53.180;5.812;2024-02-15T02:03:23;10.10;99.90
52849;DHT22;38714;53.180;5.812;2024-02-15T02:05:49;10.20;99.90
52849;DHT22;38714;53.180;5.812;2024-02-15T02:08:15;10.20;99.90
52849;DHT22;38714;53.180;5.812;2024-02-15T02:10:40;10.20;99.90
52849;DHT22;38714;53.180;5.812;2024-02-15T02:13:06;10.20;99.90
52849;DHT22;38714;53.180;5.812;2024-02-15T02:15:32;10.20;99.90
52849;DHT22;38714;53.180;5.812;2024-02-15T02:18:01;10.20;99.90
52849;DHT22;38714;53.180;5.812;2024-02-15T02:20:27;10.20;99.90
52849;DHT22;38714;53.180;5.812;2024-02-15T02:22:54;10.20;99.90
52849;DHT22;38714;53.180;5.812;2024-02-15T02:25:21;10.20;99.90
52849;DHT22;38714;53.180;5.812;2024-02-15T02:27:48;10.20;99.90
52849;DHT22;38714;53.180;5.812;2024-02-15T02:30:15;10.20;99.90
52849;DHT22;38714;53.180;5.812;2024-02-15T02:32:44;10.30;99.90
52849;DHT22;38714;53.180;5.812;2024-02-15T02:35:10;10.20;99.90
52849;DHT22;38714;53.180;5.812;2024-02-15T02:37:41;10.30;99.90
52849;DHT22;38714;53.180;5.812;2024-02-15T02:40:08;10.30;99.90
52849;DHT22;38714;53.180;5.812;2024-02-15T02:45:12;10.20;99.90
52849;DHT22;38714;53.180;5.812;2024-02-15T02:47:37;10.30;99.90
52849;DHT22;38714;53.180;5.812;2024-02-15T02:50:03;10.30;99.90
52849;DHT22;38714;53.180;5.812;2024-02-15T02:52:28;10.30;99.90
52849;DHT22;38714;53.180;5.812;2024-02-15T02:54:54;10.30;99.90
52849;DHT22;38714;53.180;5.812;2024-02-15T02:57:19;10.20;99.90
52849;DHT22;38714;53.180;5.812;2024-02-15T02:59:45;10.30;99.90
52849;DHT22;38714;53.180;5.812;2024-02-15T03:02:12;10.30;99.90
52849;DHT22;38714;53.180;5.812;2024-02-15T03:04:38;10.20;99.90
52849;DHT22;38714;53.180;5.812;2024-02-15T03:07:05;10.30;99.90
52849;DHT22;38714;53.180;5.812;2024-02-15T03:09:31;10.30;99.90
52849;DHT22;38714;53.180;5.812;2024-02-15T03:11:56;10.20;99.90
52849;DHT22;38714;53.180;5.812;2024-02-15T03:14:22;10.30;99.90
52849;DHT22;38714;53.180;5.812;2024-02-15T03:16:48;10.30;99.90
52849;DHT22;38714;53.180;5.812;2024-02-15T03:19:13;10.30;99.90
52849;DHT22;38714;53.180;5.812;2024-02-15T03:21:39;10.30;99.90
52849;DHT22;38714;53.180;5.812;2024-02-15T03:24:05;10.30;99.90
52849;DHT22;38714;53.180;5.812;2024-02-15T03:26:32;10.30;99.90
52849;DHT22;38714;53.180;5.812;2024-02-15T03:29:06;10.30;99.90
52849;DHT22;38714;53.180;5.812;2024-02-15T03:31:35;10.30;99.90
52849;DHT22;38714;53.180;5.812;2024-02-15T03:34:03;10.30;99.90
52849;DHT22;38714;53.180;5.812;2024-02-15T03:36:29;10.30;99.90
52849;DHT22;38714;53.180;5.812;2024-02-15T03:38:55;10.30;99.90
52849;DHT22;38714;53.180;5.812;2024-02-15T03:41:21;10.30;99.90
52849;DHT22;38714;53.180;5.812;2024-02-15T03:43:47;10.30;99.90
52849;DHT22;38714;53.180;5.812;2024-02-15T03:46:13;10.30;99.90
52849;DHT22;38714;53.180;5.812;2024-02-15T03:48:42;10.30;99.90
52849;DHT22;38714;53.180;5.812;2024-02-15T03:51:09;10.30;99.90
52849;DHT22;38714;53.180;5.812;2024-02-15T03:53:35;10.30;99.90
52849;DHT22;38714;53.180;5.812;2024-02-15T03:56:04;10.40;99.90
52849;DHT22;38714;53.180;5.812;2024-02-15T03:58:29;10.30;99.90
52849;DHT22;38714;53.180;5.812;2024-02-15T04:00:58;10.30;99.90
52849;DHT22;38714;53.180;5.812;2024-02-15T04:03:24;10.30;99.90
52849;DHT22;38714;53.180;5.812;2024-02-15T04:05:49;10.30;99.90
52849;DHT22;38714;53.180;5.812;2024-02-15T04:08:15;10.30;99.90
52849;DHT22;38714;53.180;5.812;2024-02-15T04:10:42;10.30;99.90
52849;DHT22;38714;53.180;5.812;2024-02-15T04:13:07;10.40;99.90
52849;DHT22;38714;53.180;5.812;2024-02-15T04:15:34;10.40;99.90
52849;DHT22;38714;53.180;5.812;2024-02-15T04:18:00;10.40;99.90
52849;DHT22;38714;53.180;5.812;2024-02-15T04:20:26;10.40;99.90
52849;DHT22;38714;53.180;5.812;2024-02-15T04:22:52;10.40;99.90
52849;DHT22;38714;53.180;5.812;2024-02-15T04:25:19;10.40;99.90
52849;DHT22;38714;53.180;5.812;2024-02-15T04:27:48;10.40;99.90
52849;DHT22;38714;53.180;5.812;2024-02-15T04:30:14;10.40;99.90
52849;DHT22;38714;53.180;5.812;2024-02-15T04:32:41;10.40;99.90
52849;DHT22;38714;53.180;5.812;2024-02-15T04:35:06;10.40;99.90
52849;DHT22;38714;53.180;5.812;2024-02-15T04:37:32;10.40;99.90
52849;DHT22;38714;53.180;5.812;2024-02-15T04:40:00;10.50;99.90
52849;DHT22;38714;53.180;5.812;2024-02-15T04:42:36;10.50;99.90
52849;DHT22;38714;53.180;5.812;2024-02-15T04:45:05;10.50;99.90
52849;DHT22;38714;53.180;5.812;2024-02-15T04:47:34;10.50;99.90
52849;DHT22;38714;53.180;5.812;2024-02-15T04:50:00;10.50;99.90
52849;DHT22;38714;53.180;5.812;2024-02-15T04:52:25;10.50;99.90
52849;DHT22;38714;53.180;5.812;2024-02-15T04:54:51;10.50;99.90
52849;DHT22;38714;53.180;5.812;2024-02-15T04:57:19;10.50;99.90
52849;DHT22;38714;53.180;5.812;2024-02-15T04:59:44;10.50;99.90
52849;DHT22;38714;53.180;5.812;2024-02-15T05:02:13;10.50;99.90
52849;DHT22;38714;53.180;5.812;2024-02-15T05:04:39;10.50;99.90
52849;DHT22;38714;53.180;5.812;2024-02-15T05:07:08;10.50;99.90
52849;DHT22;38714;53.180;5.812;2024-02-15T05:09:34;10.50;99.90
52849;DHT22;38714;53.180;5.812;2024-02-15T05:12:02;10.50;99.90
52849;DHT22;38714;53.180;5.812;2024-02-15T05:14:29;10.50;99.90
52849;DHT22;38714;53.180;5.812;2024-02-15T05:16:55;10.50;99.90
52849;DHT22;38714;53.180;5.812;2024-02-15T05:19:20;10.50;99.90
52849;DHT22;38714;53.180;5.812;2024-02-15T05:21:46;10.50;99.90
52849;DHT22;38714;53.180;5.812;2024-02-15T05:24:16;10.50;99.90
52849;DHT22;38714;53.180;5.812;2024-02-15T05:26:43;10.50;99.90
52849;DHT22;38714;53.180;5.812;2024-02-15T05:29:12;10.60;99.90
52849;DHT22;38714;53.180;5.812;2024-02-15T05:31:38;10.60;99.90
52849;DHT22;38714;53.180;5.812;2024-02-15T05:34:05;10.50;99.90
52849;DHT22;38714;53.180;5.812;2024-02-15T05:36:30;10.60;99.90
52849;DHT22;38714;53.180;5.812;2024-02-15T05:38:56;10.70;99.90
52849;DHT22;38714;53.180;5.812;2024-02-15T05:41:23;10.70;99.90
52849;DHT22;38714;53.180;5.812;2024-02-15T05:43:50;10.60;99.90
52849;DHT22;38714;53.180;5.812;2024-02-15T05:46:18;10.70;99.90
52849;DHT22;38714;53.180;5.812;2024-02-15T05:48:46;10.70;99.90
52849;DHT22;38714;53.180;5.812;2024-02-15T05:51:12;10.70;99.90
52849;DHT22;38714;53.180;5.812;2024-02-15T05:53:37;10.70;99.90
52849;DHT22;38714;53.180;5.812;2024-02-15T05:56:05;10.70;99.90
52849;DHT22;38714;53.180;5.812;2024-02-15T05:58:31;10.70;99.90
52849;DHT22;38714;53.180;5.812;2024-02-15T06:00:58;10.70;99.90
52849;DHT22;38714;53.180;5.812;2024-02-15T06:03:30;10.70;99.90
52849;DHT22;38714;53.180;5.812;2024-02-15T06:05:57;10.70;99.90
52849;DHT22;38714;53.180;5.812;2024-02-15T06:08:26;10.70;99.90
52849;DHT22;38714;53.180;5.812;2024-02-15T06:10:53;10.70;99.90
52849;DHT22;38714;53.180;5.812;2024-02-15T06:13:19;10.70;99.90
52849;DHT22;38714;53.180;5.812;2024-02-15T06:15:45;10.70;99.90
52849;DHT22;38714;53.180;5.812;2024-02-15T06:18:14;10.70;99.90
52849;DHT22;38714;53.180;5.812;2024-02-15T06:20:42;10.80;99.90
52849;DHT22;38714;53.180;5.812;2024-02-15T06:23:08;10.70;99.90
52849;DHT22;38714;53.180;5.812;2024-02-15T06:25:35;10.70;99.90
52849;DHT22;38714;53.180;5.812;2024-02-15T06:28:00;10.80;99.90
52849;DHT22;38714;53.180;5.812;2024-02-15T06:30:39;10.80;99.90
52849;DHT22;38714;53.180;5.812;2024-02-15T06:33:23;10.80;99.90
52849;DHT22;38714;53.180;5.812;2024-02-15T06:36:08;10.80;99.90
52849;DHT22;38714;53.180;5.812;2024-02-15T06:38:52;10.80;99.90
52849;DHT22;38714;53.180;5.812;2024-02-15T06:41:36;10.90;99.90
52849;DHT22;38714;53.180;5.812;2024-02-15T06:44:01;10.80;99.90
52849;DHT22;38714;53.180;5.812;2024-02-15T06:46:27;10.80;99.90
52849;DHT22;38714;53.180;5.812;2024-02-15T06:48:53;10.90;99.90
52849;DHT22;38714;53.180;5.812;2024-02-15T06:51:20;10.80;99.90
52849;DHT22;38714;53.180;5.812;2024-02-15T06:53:45;10.80;99.90
52849;DHT22;38714;53.180;5.812;2024-02-15T06:56:12;10.90;99.90
52849;DHT22;38714;53.180;5.812;2024-02-15T06:58:39;10.80;99.90
52849;DHT22;38714;53.180;5.812;2024-02-15T07:01:08;10.80;99.90
52849;DHT22;38714;53.180;5.812;2024-02-15T07:03:33;10.80;99.90
52849;DHT22;38714;53.180;5.812;2024-02-15T07:05:59;10.90;99.90
52849;DHT22;38714;53.180;5.812;2024-02-15T07:08:25;10.90;99.90
52849;DHT22;38714;53.180;5.812;2024-02-15T07:10:50;10.80;99.90
52849;DHT22;38714;53.180;5.812;2024-02-15T07:13:17;10.90;99.90
52849;DHT22;38714;53.180;5.812;2024-02-15T07:15:43;10.90;99.90
52849;DHT22;38714;53.180;5.812;2024-02-15T07:18:09;10.90;99.90
52849;DHT22;38714;53.180;5.812;2024-02-15T07:20:36;10.90;99.90
52849;DHT22;38714;53.180;5.812;2024-02-15T07:23:02;10.90;99.90
52849;DHT22;38714;53.180;5.812;2024-02-15T07:25:27;10.90;99.90
52849;DHT22;38714;53.180;5.812;2024-02-15T07:27:53;10.90;99.90
52849;DHT22;38714;53.180;5.812;2024-02-15T07:30:19;10.90;99.90
52849;DHT22;38714;53.180;5.812;2024-02-15T07:32:45;10.90;99.90
52849;DHT22;38714;53.180;5.812;2024-02-15T07:35:11;10.90;99.90
52849;DHT22;38714;53.180;5.812;2024-02-15T07:37:39;10.90;99.90
52849;DHT22;38714;53.180;5.812;2024-02-15T07:40:05;10.90;99.90
52849;DHT22;38714;53.180;5.812;2024-02-15T07:42:33;10.90;99.90
52849;DHT22;38714;53.180;5.812;2024-02-15T07:45:00;11.00;99.90
52849;DHT22;38714;53.180;5.812;2024-02-15T07:47:26;10.90;99.90
52849;DHT22;38714;53.180;5.812;2024-02-15T07:49:52;11.00;99.90
52849;DHT22;38714;53.180;5.812;2024-02-15T07:52:18;11.00;99.90
52849;DHT22;38714;53.180;5.812;2024-02-15T07:54:44;11.00;99.90
52849;DHT22;38714;53.180;5.812;2024-02-15T07:57:09;11.00;99.90
52849;DHT22;38714;53.180;5.812;2024-02-15T07:59:36;11.00;99.90
52849;DHT22;38714;53.180;5.812;2024-02-15T08:02:04;11.00;99.90
52849;DHT22;38714;53.180;5.812;2024-02-15T08:04:30;11.00;99.90
52849;DHT22;38714;53.180;5.812;2024-02-15T08:06:56;11.00;99.90
52849;DHT22;38714;53.180;5.812;2024-02-15T08:09:22;11.00;99.90
52849;DHT22;38714;53.180;5.812;2024-02-15T08:11:49;11.00;99.90
52849;DHT22;38714;53.180;5.812;2024-02-15T08:14:16;11.00;99.90
52849;DHT22;38714;53.180;5.812;2024-02-15T08:16:41;11.00;99.90
52849;DHT22;38714;53.180;5.812;2024-02-15T08:19:07;11.00;99.90
52849;DHT22;38714;53.180;5.812;2024-02-15T08:21:33;11.00;99.90
52849;DHT22;38714;53.180;5.812;2024-02-15T08:24:02;11.10;99.90
52849;DHT22;38714;53.180;5.812;2024-02-15T08:26:37;11.00;99.90
52849;DHT22;38714;53.180;5.812;2024-02-15T08:29:07;11.10;99.90
52849;DHT22;38714;53.180;5.812;2024-02-15T08:31:33;11.10;99.90
52849;DHT22;38714;53.180;5.812;2024-02-15T08:34:01;11.10;99.90
52849;DHT22;38714;53.180;5.812;2024-02-15T08:36:27;11.10;99.90
52849;DHT22;38714;53.180;5.812;2024-02-15T08:38:52;11.10;99.90
52849;DHT22;38714;53.180;5.812;2024-02-15T08:41:19;11.10;99.90
52849;DHT22;38714;53.180;5.812;2024-02-15T08:43:46;11.10;99.90
52849;DHT22;38714;53.180;5.812;2024-02-15T08:46:14;11.20;99.90
52849;DHT22;38714;53.180;5.812;2024-02-15T08:48:39;11.20;99.90
52849;DHT22;38714;53.180;5.812;2024-02-15T08:51:06;11.20;99.90
52849;DHT22;38714;53.180;5.812;2024-02-15T08:53:34;11.20;99.90
52849;DHT22;38714;53.180;5.812;2024-02-15T08:56:02;11.20;99.90
52849;DHT22;38714;53.180;5.812;2024-02-15T08:58:28;11.20;99.90
52849;DHT22;38714;53.180;5.812;2024-02-15T09:00:56;11.20;99.90
52849;DHT22;38714;53.180;5.812;2024-02-15T09:03:21;11.30;99.90
52849;DHT22;38714;53.180;5.812;2024-02-15T09:05:47;11.30;99.90
52849;DHT22;38714;53.180;5.812;2024-02-15T09:08:13;11.30;99.90
52849;DHT22;38714;53.180;5.812;2024-02-15T09:10:41;11.30;99.90
52849;DHT22;38714;53.180;5.812;2024-02-15T09:13:08;11.30;99.90
52849;DHT22;38714;53.180;5.812;2024-02-15T09:15:34;11.30;99.90
52849;DHT22;38714;53.180;5.812;2024-02-15T09:18:01;11.40;99.90
52849;DHT22;38714;53.180;5.812;2024-02-15T09:20:27;11.40;99.90
52849;DHT22;38714;53.180;5.812;2024-02-15T09:22:54;11.30;99.90
52849;DHT22;38714;53.180;5.812;2024-02-15T09:25:23;11.40;99.90
52849;DHT22;38714;53.180;5.812;2024-02-15T09:27:49;11.40;99.90
52849;DHT22;38714;53.180;5.812;2024-02-15T09:30:16;11.40;99.90
52849;DHT22;38714;53.180;5.812;2024-02-15T09:32:42;11.40;99.90
52849;DHT22;38714;53.180;5.812;2024-02-15T09:35:09;11.40;99.90
52849;DHT22;38714;53.180;5.812;2024-02-15T09:37:35;11.40;99.90
52849;DHT22;38714;53.180;5.812;2024-02-15T09:40:07;11.40;99.90
52849;DHT22;38714;53.180;5.812;2024-02-15T09:42:35;11.40;99.90
52849;DHT22;38714;53.180;5.812;2024-02-15T09:45:04;11.40;99.90
52849;DHT22;38714;53.180;5.812;2024-02-15T09:47:34;11.40;99.90
52849;DHT22;38714;53.180;5.812;2024-02-15T09:50:02;11.40;99.90
52849;DHT22;38714;53.180;5.812;2024-02-15T09:52:29;11.40;99.90
52849;DHT22;38714;53.180;5.812;2024-02-15T09:54:58;11.40;99.90
52849;DHT22;38714;53.180;5.812;2024-02-15T09:57:24;11.40;99.90
52849;DHT22;38714;53.180;5.812;2024-02-15T09:59:52;11.40;99.90
52849;DHT22;38714;53.180;5.812;2024-02-15T10:02:18;11.40;99.90
52849;DHT22;38714;53.180;5.812;2024-02-15T10:04:44;11.40;99.90
52849;DHT22;38714;53.180;5.812;2024-02-15T10:07:09;11.40;99.90
52849;DHT22;38714;53.180;5.812;2024-02-15T10:09:35;11.40;99.90
52849;DHT22;38714;53.180;5.812;2024-02-15T10:12:04;11.40;99.90
52849;DHT22;38714;53.180;5.812;2024-02-15T10:14:32;11.40;99.90
52849;DHT22;38714;53.180;5.812;2024-02-15T10:17:06;11.40;99.90
52849;DHT22;38714;53.180;5.812;2024-02-15T10:19:35;11.40;99.90
52849;DHT22;38714;53.180;5.812;2024-02-15T10:22:07;11.40;99.90
52849;DHT22;38714;53.180;5.812;2024-02-15T10:24:32;11.40;99.90
52849;DHT22;38714;53.180;5.812;2024-02-15T10:27:02;11.40;99.90
52849;DHT22;38714;53.180;5.812;2024-02-15T10:29:36;11.40;99.90
52849;DHT22;38714;53.180;5.812;2024-02-15T10:32:03;11.40;99.90
52849;DHT22;38714;53.180;5.812;2024-02-15T10:34:30;11.40;99.90
52849;DHT22;38714;53.180;5.812;2024-02-15T10:37:12;11.40;99.90
52849;DHT22;38714;53.180;5.812;2024-02-15T10:39:37;11.40;99.90
52849;DHT22;38714;53.180;5.812;2024-02-15T10:42:06;11.40;99.90
52849;DHT22;38714;53.180;5.812;2024-02-15T10:44:32;11.50;99.90
52849;DHT22;38714;53.180;5.812;2024-02-15T10:47:01;11.50;99.90
52849;DHT22;38714;53.180;5.812;2024-02-15T10:49:31;11.50;99.90
52849;DHT22;38714;53.180;5.812;2024-02-15T10:51:58;11.50;99.90
52849;DHT22;38714;53.180;5.812;2024-02-15T10:57:10;11.60;99.90
52849;DHT22;38714;53.180;5.812;2024-02-15T10:59:38;11.60;99.90
52849;DHT22;38714;53.180;5.812;2024-02-15T11:02:30;11.60;99.90
52849;DHT22;38714;53.180;5.812;2024-02-15T11:05:06;11.60;99.90
52849;DHT22;38714;53.180;5.812;2024-02-15T11:07:36;11.70;99.90
52849;DHT22;38714;53.180;5.812;2024-02-15T11:10:03;11.60;99.90
52849;DHT22;38714;53.180;5.812;2024-02-15T11:12:33;11.60;99.90
52849;DHT22;38714;53.180;5.812;2024-02-15T11:14:59;11.70;99.90
52849;DHT22;38714;53.180;5.812;2024-02-15T11:20:06;11.70;99.90
52849;DHT22;38714;53.180;5.812;2024-02-15T11:22:37;11.70;99.90
52849;DHT22;38714;53.180;5.812;2024-02-15T11:25:03;11.60;99.90
52849;DHT22;38714;53.180;5.812;2024-02-15T11:27:38;11.70;99.90
52849;DHT22;38714;53.180;5.812;2024-02-15T11:30:05;11.70;99.90
52849;DHT22;38714;53.180;5.812;2024-02-15T11:32:39;11.80;99.90
52849;DHT22;38714;53.180;5.812;2024-02-15T11:35:10;11.80;99.90
52849;DHT22;38714;53.180;5.812;2024-02-15T11:37:49;11.80;99.90
52849;DHT22;38714;53.180;5.812;2024-02-15T11:40:19;11.80;99.90
52849;DHT22;38714;53.180;5.812;2024-02-15T11:42:47;11.80;99.90
52849;DHT22;38714;53.180;5.812;2024-02-15T11:45:15;11.80;99.90
52849;DHT22;38714;53.180;5.812;2024-02-15T11:47:46;11.80;99.90
52849;DHT22;38714;53.180;5.812;2024-02-15T11:50:14;11.80;99.90
52849;DHT22;38714;53.180;5.812;2024-02-15T11:52:43;11.80;99.90
52849;DHT22;38714;53.180;5.812;2024-02-15T11:55:09;11.80;99.90
52849;DHT22;38714;53.180;5.812;2024-02-15T11:57:37;11.80;99.90
52849;DHT22;38714;53.180;5.812;2024-02-15T12:00:25;11.80;99.90
52849;DHT22;38714;53.180;5.812;2024-02-15T12:03:09;11.70;99.90
52849;DHT22;38714;53.180;5.812;2024-02-15T12:05:54;11.80;99.90
52849;DHT22;38714;53.180;5.812;2024-02-15T12:08:39;11.80;99.90
52849;DHT22;38714;53.180;5.812;2024-02-15T12:11:23;11.70;99.90
52849;DHT22;38714;53.180;5.812;2024-02-15T12:14:12;11.70;99.90
52849;DHT22;38714;53.180;5.812;2024-02-15T12:17:06;11.70;99.90
52849;DHT22;38714;53.180;5.812;2024-02-15T12:19:52;11.70;99.90
52849;DHT22;38714;53.180;5.812;2024-02-15T12:22:25;11.70;99.90
52849;DHT22;38714;53.180;5.812;2024-02-15T12:24:56;11.70;99.90
52849;DHT22;38714;53.180;5.812;2024-02-15T12:27:22;11.80;99.90
52849;DHT22;38714;53.180;5.812;2024-02-15T12:29:58;11.70;99.90
52849;DHT22;38714;53.180;5.812;2024-02-15T12:32:25;11.70;99.90
52849;DHT22;38714;53.180;5.812;2024-02-15T12:35:09;11.70;99.90
52849;DHT22;38714;53.180;5.812;2024-02-15T12:37:35;11.80;99.90
52849;DHT22;38714;53.180;5.812;2024-02-15T12:40:17;11.80;99.90
52849;DHT22;38714;53.180;5.812;2024-02-15T12:42:46;11.80;99.90
52849;DHT22;38714;53.180;5.812;2024-02-15T12:45:18;11.80;99.90
52849;DHT22;38714;53.180;5.812;2024-02-15T12:47:50;11.80;99.90
52849;DHT22;38714;53.180;5.812;2024-02-15T12:50:20;11.80;99.90
52849;DHT22;38714;53.180;5.812;2024-02-15T12:52:47;11.90;99.90
52849;DHT22;38714;53.180;5.812;2024-02-15T12:55:20;11.80;99.90
52849;DHT22;38714;53.180;5.812;2024-02-15T12:57:51;11.80;99.90
52849;DHT22;38714;53.180;5.812;2024-02-15T13:00:22;11.90;99.90
52849;DHT22;38714;53.180;5.812;2024-02-15T13:02:50;11.80;99.90
52849;DHT22;38714;53.180;5.812;2024-02-15T13:05:17;11.90;99.90
52849;DHT22;38714;53.180;5.812;2024-02-15T13:07:50;11.90;99.90
52849;DHT22;38714;53.180;5.812;2024-02-15T13:10:17;11.90;99.90
52849;DHT22;38714;53.180;5.812;2024-02-15T13:12:43;11.90;99.90
52849;DHT22;38714;53.180;5.812;2024-02-15T13:15:13;11.90;99.90
52849;DHT22;38714;53.180;5.812;2024-02-15T13:17:50;11.90;99.90
52849;DHT22;38714;53.180;5.812;2024-02-15T13:20:23;11.90;99.90
52849;DHT22;38714;53.180;5.812;2024-02-15T13:23:16;11.80;99.90
52849;DHT22;38714;53.180;5.812;2024-02-15T13:25:47;11.90;99.90
52849;DHT22;38714;53.180;5.812;2024-02-15T13:28:14;11.90;99.90
52849;DHT22;38714;53.180;5.812;2024-02-15T13:30:41;11.90;99.90
52849;DHT22;38714;53.180;5.812;2024-02-15T13:33:08;11.90;99.90
52849;DHT22;38714;53.180;5.812;2024-02-15T13:35:34;11.80;99.90
52849;DHT22;38714;53.180;5.812;2024-02-15T13:38:02;11.80;99.90
52849;DHT22;38714;53.180;5.812;2024-02-15T13:40:28;11.90;99.90
52849;DHT22;38714;53.180;5.812;2024-02-15T13:42:59;11.90;99.90
52849;DHT22;38714;53.180;5.812;2024-02-15T13:45:40;11.90;99.90
52849;DHT22;38714;53.180;5.812;2024-02-15T13:48:06;11.90;99.90
52849;DHT22;38714;53.180;5.812;2024-02-15T13:50:35;11.90;99.90
52849;DHT22;38714;53.180;5.812;2024-02-15T13:53:01;11.90;99.90
52849;DHT22;38714;53.180;5.812;2024-02-15T13:55:28;11.90;99.90
52849;DHT22;38714;53.180;5.812;2024-02-15T13:57:55;12.00;99.90
52849;DHT22;38714;53.180;5.812;2024-02-15T14:00:22;12.00;99.90
52849;DHT22;38714;53.180;5.812;2024-02-15T14:02:52;12.00;99.90
52849;DHT22;38714;53.180;5.812;2024-02-15T14:05:19;12.00;99.90
52849;DHT22;38714;53.180;5.812;2024-02-15T14:07:51;12.00;99.90
52849;DHT22;38714;53.180;5.812;2024-02-15T14:10:19;12.00;99.90
52849;DHT22;38714;53.180;5.812;2024-02-15T14:12:47;12.00;99.90
52849;DHT22;38714;53.180;5.812;2024-02-15T14:15:12;12.00;99.90
52849;DHT22;38714;53.180;5.812;2024-02-15T14:17:38;12.10;99.90
52849;DHT22;38714;53.180;5.812;2024-02-15T14:20:05;12.10;99.90
52849;DHT22;38714;53.180;5.812;2024-02-15T14:22:34;12.10;99.90
52849;DHT22;38714;53.180;5.812;2024-02-15T14:25:01;12.10;99.90
52849;DHT22;38714;53.180;5.812;2024-02-15T14:27:26;12.10;99.90
52849;DHT22;38714;53.180;5.812;2024-02-15T14:29:52;12.10;99.90
52849;DHT22;38714;53.180;5.812;2024-02-15T14:32:36;12.10;99.90
52849;DHT22;38714;53.180;5.812;2024-02-15T14:35:20;12.20;99.90
52849;DHT22;38714;53.180;5.812;2024-02-15T14:37:47;12.20;99.90
52849;DHT22;38714;53.180;5.812;2024-02-15T14:40:12;12.20;99.90
52849;DHT22;38714;53.180;5.812;2024-02-15T14:42:41;12.30;99.90
52849;DHT22;38714;53.180;5.812;2024-02-15T14:45:11;12.30;99.90
52849;DHT22;38714;53.180;5.812;2024-02-15T14:47:37;12.40;99.90
52849;DHT22;38714;53.180;5.812;2024-02-15T14:50:03;12.40;99.90
52849;DHT22;38714;53.180;5.812;2024-02-15T14:52:31;12.40;99.90
52849;DHT22;38714;53.180;5.812;2024-02-15T14:54:56;12.40;99.90
52849;DHT22;38714;53.180;5.812;2024-02-15T14:57:22;12.40;99.90
52849;DHT22;38714;53.180;5.812;2024-02-15T14:59:49;12.40;99.90
52849;DHT22;38714;53.180;5.812;2024-02-15T15:02:15;12.50;99.90
52849;DHT22;38714;53.180;5.812;2024-02-15T15:04:41;12.50;99.90
52849;DHT22;38714;53.180;5.812;2024-02-15T15:07:23;12.40;99.90
52849;DHT22;38714;53.180;5.812;2024-02-15T15:10:07;12.50;99.90
52849;DHT22;38714;53.180;5.812;2024-02-15T15:12:52;12.50;99.90
52849;DHT22;38714;53.180;5.812;2024-02-15T15:15:17;12.50;99.90
52849;DHT22;38714;53.180;5.812;2024-02-15T15:17:45;12.50;99.90
52849;DHT22;38714;53.180;5.812;2024-02-15T15:20:11;12.50;99.90
52849;DHT22;38714;53.180;5.812;2024-02-15T15:22:37;12.50;99.90
52849;DHT22;38714;53.180;5.812;2024-02-15T15:25:03;12.50;99.90
52849;DHT22;38714;53.180;5.812;2024-02-15T15:27:34;12.50;99.90
52849;DHT22;38714;53.180;5.812;2024-02-15T15:30:05;12.50;99.90
52849;DHT22;38714;53.180;5.812;2024-02-15T15:32:31;12.50;99.90
52849;DHT22;38714;53.180;5.812;2024-02-15T15:34:59;12.50;99.90
52849;DHT22;38714;53.180;5.812;2024-02-15T15:37:24;12.50;99.90
52849;DHT22;38714;53.180;5.812;2024-02-15T15:39:50;12.50;99.90
52849;DHT22;38714;53.180;5.812;2024-02-15T15:42:16;12.50;99.90
52849;DHT22;38714;53.180;5.812;2024-02-15T15:44:43;12.50;99.90